Date,TemperatureHighF,TemperatureAvgF,TemperatureLowF,DewpointHighF,DewpointAvgF,DewpointLowF,HumidityHigh,HumidityAvg,HumidityLow,PressureMaxIn,PressureMinIn,WindSpeedMaxMPH,WindSpeedAvgMPH,GustSpeedMaxMPH,PrecipitationSumIn
2012-1-1,78,73,69,-100,-100,-100,0,0,100,30.27,30.17,11,6,14,0.00
2012-1-2,73,70,61,-100,-100,-100,0,0,100,30.22,30.11,26,12,31,0.00
2012-1-3,62,57,50,-100,-100,-100,0,0,100,30.37,30.20,24,16,29,0.00
2012-1-4,65,55,45,-100,-100,-100,0,0,100,30.39,30.27,20,12,24,0.00
2012-1-5,64,59,54,-100,-100,-100,0,0,100,30.31,30.21,17,12,21,0.00
2012-1-6,70,62,57,-100,-100,-100,0,0,100,30.25,30.15,10,6,11,0.00
2012-1-9,72,70,67,-100,-100,-100,0,0,100,30.12,30.10,9,7,11,0.00
2012-1-10,73,70,66,-100,-100,-100,0,0,100,30.11,29.98,10,8,13,0.00
2012-1-11,74,71,70,-100,-100,-100,0,0,100,29.99,29.79,34,11,47,0.00
2012-1-12,73,70,69,-100,-100,-100,0,0,100,30.02,29.95,6,3,7,0.00
2012-1-13,72,70,68,-100,-100,-100,0,0,100,30.18,30.03,15,6,17,0.00
2012-1-14,67,62,56,-100,-100,-100,0,0,100,30.33,30.17,21,17,25,0.00
2012-1-15,69,62,56,-100,-100,-100,0,0,100,30.43,30.31,21,15,24,0.00
2012-1-17,71,69,66,-100,-100,-100,0,0,100,30.30,30.16,9,7,10,0.00
2012-1-18,73,69,65,-100,-100,-100,0,0,100,30.16,30.07,8,4,9,0.00
2012-1-19,68,67,67,-100,-100,-100,0,0,100,30.07,30.04,3,2,5,0.00
2012-1-20,73,72,69,-100,-100,-100,0,0,100,30.16,30.13,14,11,16,0.00
2012-1-21,75,71,68,-100,-100,-100,0,0,100,30.16,30.07,9,5,11,0.00
2012-1-22,75,71,67,-100,-100,-100,0,0,100,30.14,30.07,13,8,15,0.00
2012-1-23,75,73,69,-100,-100,-100,0,0,100,30.12,30.07,13,9,16,0.00
2012-1-24,76,74,70,-100,-100,-100,0,0,100,0.00,40.00,15,10,17,0.00
2012-1-25,77,74,71,-100,-100,-100,0,0,100,30.16,30.08,16,13,21,0.00
2012-1-26,76,75,73,-100,-100,-100,0,0,100,30.12,30.01,18,12,25,0.00
2012-1-27,77,75,73,-100,-100,-100,0,0,100,30.09,29.99,15,6,20,0.00
2012-1-28,79,74,70,-100,-100,-100,0,0,100,30.16,30.06,14,8,17,0.00
2012-1-29,77,72,67,-100,-100,-100,0,0,100,30.23,30.13,18,13,22,0.00
2012-1-30,76,71,66,-100,-100,-100,0,0,100,30.27,30.18,24,19,29,0.00
2012-1-31,76,73,71,-100,-100,-100,0,0,100,30.27,30.19,22,19,28,0.00
2012-2-2,77,75,72,-100,-100,-100,0,0,100,30.14,30.08,14,11,15,0.00
2012-2-3,76,74,71,-100,-100,-100,0,0,100,30.18,30.09,23,17,29,0.00
2012-2-4,77,75,74,-100,-100,-100,0,0,100,30.14,30.04,22,17,28,0.00
2012-2-5,76,74,70,-100,-100,-100,0,0,100,30.06,29.98,11,9,14,0.00
2012-2-6,77,74,70,-100,-100,-100,0,0,100,30.06,29.97,22,11,29,0.00
2012-2-7,77,75,71,-100,-100,-100,0,0,100,30.03,29.96,11,5,15,0.00
2012-2-8,73,72,71,-100,-100,-100,0,0,100,30.08,29.99,14,6,16,0.00
2012-2-9,78,73,69,-100,-100,-100,0,0,100,30.09,30.01,17,13,21,0.00
2012-2-10,76,73,70,-100,-100,-100,0,0,100,30.07,29.95,13,6,14,0.00
2012-2-11,75,70,64,-100,-100,-100,0,0,100,30.10,29.93,29,19,36,0.00
2012-2-12,60,55,51,-100,-100,-100,0,0,100,30.27,30.11,24,18,29,0.00
2012-2-13,67,57,51,-100,-100,-100,0,0,100,30.21,30.11,22,18,28,0.00
2012-2-14,71,70,68,-100,-100,-100,0,0,100,30.16,30.08,9,7,10,0.00
2012-2-15,73,70,67,-100,-100,-100,0,0,100,30.21,30.11,10,8,13,0.00
2012-2-16,74,72,69,-100,-100,-100,0,0,100,30.20,30.10,8,6,8,0.00
2012-2-17,76,73,70,-100,-100,-100,0,0,100,30.11,30.02,6,4,7,0.00
2012-2-18,76,74,71,-100,-100,-100,0,0,100,30.04,29.93,9,5,10,0.00
2012-2-19,75,74,74,-100,-100,-100,0,0,100,30.01,29.92,10,8,11,0.00
2012-2-21,73,73,72,-100,-100,-100,0,0,100,30.21,30.12,17,12,21,0.00
2012-2-22,76,74,72,-100,-100,-100,0,0,100,30.14,29.99,11,5,13,0.00
2012-2-23,75,74,74,-100,-100,-100,0,0,100,30.03,29.96,9,5,10,0.00
2012-2-24,78,78,77,-100,-100,-100,0,0,100,30.07,29.99,8,4,10,0.00
2012-2-25,78,76,70,-100,-100,-100,0,0,100,30.16,30.04,21,5,24,0.00
2012-2-26,78,76,72,-100,-100,-100,0,0,100,30.22,30.14,25,19,30,0.00
2012-2-27,79,77,75,-100,-100,-100,0,0,100,30.26,30.18,20,16,23,0.00
2012-2-28,79,76,74,-100,-100,-100,0,0,100,30.24,30.16,17,13,21,0.00
2012-2-29,78,77,74,-100,-100,-100,0,0,100,30.21,30.11,15,12,18,0.00
2012-3-1,79,78,77,-100,-100,-100,0,0,100,30.13,30.04,14,9,16,0.00
2012-3-2,79,78,77,-100,-100,-100,0,0,100,30.07,29.99,20,14,23,0.00
2012-3-3,79,79,78,-100,-100,-100,0,0,100,30.01,29.89,22,15,24,0.00
2012-3-4,80,73,61,-100,-100,-100,0,0,100,30.21,29.88,31,20,41,0.00
2012-3-5,73,65,56,-100,-100,-100,0,0,100,30.31,30.19,24,18,29,0.00
2012-3-7,74,73,71,-100,-100,-100,0,0,100,30.29,30.25,25,23,30,0.00
2012-3-8,76,75,73,-100,-100,-100,0,0,100,30.23,30.14,21,16,23,0.00
2012-3-9,77,76,74,-100,-100,-100,0,0,100,30.19,30.10,14,11,16,0.00
2012-3-10,78,74,71,-100,-100,-100,0,0,100,30.19,30.10,14,10,16,0.00
2012-3-11,77,76,73,-100,-100,-100,0,0,100,30.24,30.14,25,16,29,0.00
2012-3-12,76,74,72,-100,-100,-100,0,0,100,30.25,30.16,28,20,31,0.00
2012-3-13,76,74,71,-100,-100,-100,0,0,100,30.22,30.14,18,14,23,0.00
2012-3-14,78,74,70,-100,-100,-100,0,0,100,30.20,30.10,18,12,22,0.00
2012-3-15,76,73,70,-100,-100,-100,0,0,100,30.18,30.10,26,14,31,0.00
2012-3-16,77,74,71,-100,-100,-100,0,0,100,30.20,30.11,17,14,22,0.00
2012-3-17,77,74,71,-100,-100,-100,0,0,100,30.22,30.10,21,14,24,0.00
2012-3-18,77,74,70,-100,-100,-100,0,0,100,30.22,30.11,21,13,23,0.00
2012-3-19,77,75,72,-100,-100,-100,0,0,100,30.17,30.05,18,15,23,0.00
2012-3-20,77,75,73,-100,-100,-100,0,0,100,30.09,30.01,21,16,23,0.00
2012-3-21,78,77,74,-100,-100,-100,0,0,100,30.12,30.02,22,18,26,0.00
2012-3-22,78,77,75,-100,-100,-100,0,0,100,30.15,30.06,20,18,24,0.00
2012-3-23,78,77,76,-100,-100,-100,0,0,100,30.12,30.03,17,13,20,0.00
2012-3-24,78,76,73,-100,-100,-100,0,0,100,30.07,29.97,11,9,14,0.00
2012-3-25,78,77,76,-100,-100,-100,0,0,100,30.00,29.88,16,11,18,0.00
2012-3-26,76,74,70,-100,-100,-100,0,0,100,30.01,29.92,15,11,17,0.00
2012-3-27,78,74,69,-100,-100,-100,0,0,100,30.14,29.99,20,12,24,0.00
2012-3-28,77,75,72,-100,-100,-100,0,0,100,30.15,30.06,22,17,25,0.00
2012-3-29,77,75,74,-100,-100,-100,0,0,100,30.08,29.99,17,13,22,0.00
2012-3-30,76,76,75,-100,-100,-100,0,0,100,30.09,29.99,14,10,17,0.00
2012-3-31,78,77,76,-100,-100,-100,0,0,100,30.03,29.93,16,11,20,0.00
2012-4-2,80,78,75,-100,-100,-100,0,0,100,29.96,29.88,10,6,11,0.00
2012-4-3,80,78,75,-100,-100,-100,0,0,100,30.00,29.92,11,8,14,0.00
2012-4-4,80,79,79,-100,-100,-100,0,0,100,29.99,29.86,16,13,18,0.00
2012-4-5,80,78,72,-100,-100,-100,0,0,100,29.91,29.80,18,13,22,0.00
2012-4-6,80,79,78,-100,-100,-100,0,0,100,29.93,29.82,23,18,28,0.00
2012-4-7,79,75,69,-100,-100,-100,0,0,100,30.08,29.92,23,17,28,0.00
2012-4-8,77,74,71,-100,-100,-100,0,0,100,30.14,30.06,20,16,23,0.00
2012-4-9,77,75,71,-100,-100,-100,0,0,100,30.10,30.01,13,10,16,0.00
2012-4-10,78,77,76,-100,-100,-100,0,0,100,30.09,30.01,14,10,15,0.00
2012-4-11,77,76,74,-100,-100,-100,0,0,100,30.09,30.00,14,7,15,0.00
2012-4-12,78,76,72,-100,-100,-100,0,0,100,30.08,30.01,15,11,17,0.00
2012-4-13,79,77,75,-100,-100,-100,0,0,100,30.11,30.00,10,5,14,0.00
2012-4-14,78,77,75,-100,-100,-100,0,0,100,30.18,30.06,29,19,33,0.00
2012-4-15,78,76,74,-100,-100,-100,0,0,100,30.20,30.13,24,18,29,0.00
2012-4-16,78,76,74,-100,-100,-100,0,0,100,30.17,30.09,25,19,30,0.00
2012-4-17,77,76,74,-100,-100,-100,0,0,100,30.16,30.07,22,17,26,0.00
2012-4-18,78,77,76,-100,-100,-100,0,0,100,30.08,29.98,18,14,22,0.00
2012-4-19,79,78,77,-100,-100,-100,0,0,100,30.02,29.91,15,9,18,0.00
2012-4-20,80,79,76,-100,-100,-100,0,0,100,29.95,29.84,16,11,20,0.00
2012-4-21,79,74,70,-100,-100,-100,0,0,100,29.87,29.68,25,16,31,0.00
2012-4-22,78,77,75,-100,-100,-100,0,0,100,29.80,29.63,26,23,37,0.00
2012-4-23,76,74,72,-100,-100,-100,0,0,100,29.95,29.80,26,16,31,0.00
2012-4-24,72,69,64,-100,-100,-100,0,0,100,30.06,29.93,20,15,23,0.00
2012-4-25,74,69,61,-100,-100,-100,0,0,100,30.14,30.05,16,13,20,0.00
2012-4-26,76,75,72,-100,-100,-100,0,0,100,30.16,30.07,15,12,18,0.00
2012-4-27,78,75,70,-100,-100,-100,0,0,100,30.12,30.04,18,12,22,0.00
2012-4-28,77,76,74,-100,-100,-100,0,0,100,30.08,30.00,28,15,32,0.00
2012-4-29,75,73,72,-100,-100,-100,0,0,100,30.05,29.96,23,14,26,0.00
2012-4-30,76,74,73,-100,-100,-100,0,0,100,30.00,29.93,31,23,37,0.00
2012-5-1,78,77,75,-100,-100,-100,0,0,100,30.04,29.96,25,19,31,0.00
2012-5-2,79,78,76,-100,-100,-100,0,0,100,30.07,29.98,24,19,33,0.00
2012-5-3,80,79,77,-100,-100,-100,0,0,100,30.09,30.01,21,18,25,0.00
2012-5-4,79,78,78,-100,-100,-100,0,0,100,30.08,30.00,21,15,23,0.00
2012-5-5,80,79,78,-100,-100,-100,0,0,100,30.03,29.96,17,12,20,0.00
2012-5-6,80,79,78,-100,-100,-100,0,0,100,30.01,29.92,16,9,20,0.00
2012-5-7,80,80,78,-100,-100,-100,0,0,100,29.95,29.88,10,8,14,0.00
2012-5-8,81,80,78,-100,-100,-100,0,0,100,29.94,29.88,16,10,18,0.00
2012-5-9,82,81,80,-100,-100,-100,0,0,100,29.93,29.84,13,8,14,0.00
2012-5-10,81,80,76,-100,-100,-100,0,0,100,29.92,29.84,22,11,29,0.00
2012-5-11,83,80,77,-100,-100,-100,0,0,100,30.07,29.91,14,7,17,0.00
2012-5-12,82,81,80,-100,-100,-100,0,0,100,30.09,30.04,23,17,26,0.00
2012-5-13,82,81,80,-100,-100,-100,0,0,100,30.10,29.98,22,16,24,0.00
2012-5-14,81,80,79,-100,-100,-100,0,0,100,30.04,29.99,13,10,15,0.00
2012-5-15,83,82,81,-100,-100,-100,0,0,100,30.03,29.97,10,7,14,0.00
2012-5-16,82,81,76,-100,-100,-100,0,0,100,30.03,29.93,15,8,17,0.00
2012-5-17,81,78,75,-100,-100,-100,0,0,100,29.99,29.91,17,10,21,0.00
2012-5-18,81,81,81,-100,-100,-100,0,0,100,29.96,29.92,6,5,8,0.00
2012-5-19,81,79,75,-100,-100,-100,0,0,100,29.97,29.88,21,13,23,0.00
2012-5-20,81,78,76,-100,-100,-100,0,0,100,29.98,29.91,22,10,26,0.00
2012-5-21,82,80,78,-100,-100,-100,0,0,100,30.00,29.94,24,6,30,0.00
2012-5-22,82,81,78,-100,-100,-100,0,0,100,29.98,29.91,22,11,24,0.00
2012-5-23,81,80,78,-100,-100,-100,0,0,100,29.92,29.83,21,13,26,0.00
2012-5-24,88,81,77,-100,-100,-100,0,0,100,29.92,29.80,22,13,25,0.00
2012-5-25,85,82,78,-100,-100,-100,0,0,100,30.01,29.91,15,11,21,0.00
2012-5-26,84,81,76,-100,-100,-100,0,0,100,30.02,29.96,30,11,40,0.00
2012-5-27,85,83,80,-100,-100,-100,0,0,100,29.98,29.90,9,5,13,0.00
2012-5-28,84,83,82,-100,-100,-100,0,0,100,29.99,29.90,13,9,15,0.00
2012-5-29,85,84,81,-100,-100,-100,0,0,100,29.99,29.92,24,7,30,0.00
2012-5-30,84,84,82,-100,-100,-100,0,0,100,29.96,29.88,14,8,18,0.00
2012-5-31,84,82,74,-100,-100,-100,0,0,100,29.96,29.89,18,10,24,0.00
2012-6-1,84,80,75,-100,-100,-100,0,0,100,29.99,29.91,21,13,24,0.00
2012-6-2,83,82,81,-100,-100,-100,0,0,100,30.01,29.91,18,13,23,0.00
2012-6-3,84,83,82,-100,-100,-100,0,0,100,30.06,29.98,8,6,10,0.00
2012-6-4,85,83,82,-100,-100,-100,0,0,100,30.01,29.93,9,6,11,0.00
2012-6-5,85,85,84,-100,-100,-100,0,0,100,29.93,29.86,14,8,17,0.00
2012-6-6,85,84,84,-100,-100,-100,0,0,100,29.97,29.88,17,13,20,0.00
2012-6-7,85,84,84,-100,-100,-100,0,0,100,29.99,29.92,15,8,18,0.00
2012-6-8,87,84,83,-100,-100,-100,0,0,100,29.98,29.91,14,9,16,0.00
2012-6-9,87,84,80,-100,-100,-100,0,0,100,30.02,29.95,17,11,21,0.00
2012-6-10,87,85,84,-100,-100,-100,0,0,100,30.09,29.98,20,14,23,0.00
2012-6-11,85,84,81,-100,-100,-100,0,0,100,30.09,30.04,21,16,24,0.00
2012-6-12,84,82,80,-100,-100,-100,0,0,100,30.07,29.96,16,13,21,0.00
2012-6-13,85,82,80,-100,-100,-100,0,0,100,30.00,29.93,10,6,14,0.00
2012-6-14,84,84,82,-100,-100,-100,0,0,100,30.01,29.93,9,5,10,0.00
2012-6-18,83,82,80,-100,-100,-100,0,0,100,30.00,29.94,22,18,25,0.00
2012-6-19,83,81,79,-100,-100,-100,0,0,100,30.01,29.92,24,19,29,0.00
2012-6-20,83,80,77,-100,-100,-100,0,0,100,29.99,29.91,22,17,25,0.00
2012-6-21,82,80,76,-100,-100,-100,0,0,100,29.96,29.88,21,13,25,0.00
2012-6-22,81,79,75,-100,-100,-100,0,0,100,29.97,29.84,16,10,29,0.00
2012-6-23,83,80,75,-100,-100,-100,0,0,100,29.96,29.87,22,17,29,0.00
2012-6-24,85,83,82,-100,-100,-100,0,0,100,29.97,29.85,30,19,39,0.00
2012-6-25,83,83,82,-100,-100,-100,0,0,100,29.88,29.79,22,18,28,0.00
2012-6-26,84,83,82,-100,-100,-100,0,0,100,29.84,29.75,24,20,30,0.00
2012-6-27,84,83,83,-100,-100,-100,0,0,100,30.02,29.83,24,17,30,0.00
2012-6-28,84,83,81,-100,-100,-100,0,0,100,30.08,30.00,9,6,11,0.00
2012-6-29,85,84,82,-100,-100,-100,0,0,100,30.07,29.98,11,7,14,0.00
2012-6-30,85,84,82,-100,-100,-100,0,0,100,30.04,29.97,8,6,10,0.00
2012-7-1,86,84,83,-100,-100,-100,0,0,100,30.10,30.01,11,7,14,0.00
2012-7-2,87,85,83,-100,-100,-100,0,0,100,30.12,30.01,18,11,23,0.00
2012-7-3,86,84,80,-100,-100,-100,0,0,100,30.08,30.01,15,11,20,0.00
2012-7-4,86,85,80,-100,-100,-100,0,0,100,30.08,30.00,17,10,20,0.00
2012-7-5,86,84,81,-100,-100,-100,0,0,100,30.06,29.99,13,8,16,0.00
2012-7-6,86,85,82,-100,-100,-100,0,0,100,30.05,29.99,16,12,18,0.00
2012-7-7,86,84,82,-100,-100,-100,0,0,100,30.08,30.01,21,12,25,0.00
2012-7-8,86,83,80,-100,-100,-100,0,0,100,30.09,30.04,15,9,17,0.00
2012-7-9,85,82,80,-100,-100,-100,0,0,100,30.07,29.96,17,12,23,0.00
2012-7-10,84,82,79,-100,-100,-100,0,0,100,30.06,29.95,16,11,18,0.00
2012-7-11,83,80,75,-100,-100,-100,0,0,100,30.06,29.97,25,11,29,0.00
2012-7-12,84,82,77,-100,-100,-100,0,0,100,30.04,29.98,10,6,13,0.00
2012-7-13,85,83,81,-100,-100,-100,0,0,100,30.04,29.97,17,12,21,0.00
2012-7-14,84,83,81,-100,-100,-100,0,0,100,30.07,29.97,21,15,24,0.00
2012-7-15,83,81,77,-100,-100,-100,0,0,100,30.11,30.02,20,11,23,0.00
2012-7-16,85,82,76,-100,-100,-100,0,0,100,30.09,29.99,22,7,30,0.00
2012-7-17,85,82,76,-100,-100,-100,0,0,100,30.07,29.99,31,8,38,0.00
2012-7-18,86,85,83,-100,-100,-100,0,0,100,30.14,30.01,14,9,17,0.00
2012-7-19,87,85,84,-100,-100,-100,0,0,100,30.18,30.09,16,13,20,0.00
2012-7-20,87,85,82,-100,-100,-100,0,0,100,30.11,30.04,16,14,21,0.00
2012-7-21,87,85,82,-100,-100,-100,0,0,100,30.09,30.01,18,15,24,0.00
2012-7-22,85,82,74,-100,-100,-100,0,0,100,30.14,30.03,17,11,21,0.00
2012-7-23,86,84,81,-100,-100,-100,0,0,100,30.16,30.09,17,10,20,0.00
2012-7-24,86,85,84,-100,-100,-100,0,0,100,30.14,30.06,11,8,14,0.00
2012-7-25,87,85,84,-100,-100,-100,0,0,100,30.07,30.01,9,6,11,0.00
2012-7-26,87,86,84,-100,-100,-100,0,0,100,30.07,29.99,11,8,15,0.00
2012-7-27,87,86,85,-100,-100,-100,0,0,100,30.10,30.00,14,8,16,0.00
2012-7-28,87,86,85,-100,-100,-100,0,0,100,30.12,30.04,13,7,16,0.00
2012-7-29,87,86,84,-100,-100,-100,0,0,100,30.10,30.01,11,7,14,0.00
2012-7-30,87,85,80,-100,-100,-100,0,0,100,30.08,30.00,16,7,21,0.00
2012-7-31,87,86,84,-100,-100,-100,0,0,100,30.06,30.00,11,6,13,0.00
2012-8-1,88,86,82,-100,-100,-100,0,0,100,30.03,29.97,10,4,13,0.00
2012-8-2,89,87,84,-100,-100,-100,0,0,100,30.01,29.93,11,4,13,0.00
2012-8-3,87,84,80,-100,-100,-100,0,0,100,29.99,29.92,14,9,17,0.00
2012-8-4,88,84,81,-100,-100,-100,0,0,100,30.05,29.96,26,9,32,0.00
2012-8-5,88,86,83,-100,-100,-100,0,0,100,30.07,30.00,20,14,26,0.00
2012-8-6,86,84,81,-100,-100,-100,0,0,100,30.06,29.97,21,14,26,0.00
2012-8-7,87,86,83,-100,-100,-100,0,0,100,30.03,29.96,17,14,21,0.00
2012-8-8,87,86,84,-100,-100,-100,0,0,100,30.03,29.96,20,14,22,0.00
2012-8-9,87,86,80,-100,-100,-100,0,0,100,30.01,29.92,21,15,24,0.00
2012-8-10,85,84,80,-100,-100,-100,0,0,100,29.99,29.92,20,10,23,0.00
2012-8-11,86,84,80,-100,-100,-100,0,0,100,30.07,29.95,14,8,15,0.00
2012-8-12,87,85,84,-100,-100,-100,0,0,100,30.08,29.98,10,6,13,0.00
2012-8-13,87,86,84,-100,-100,-100,0,0,100,30.07,30.01,13,8,14,0.00
2012-8-14,88,86,83,-100,-100,-100,0,0,100,30.06,29.96,14,8,17,0.00
2012-8-15,87,86,85,-100,-100,-100,0,0,100,30.06,29.97,21,10,23,0.00
2012-8-16,87,86,83,-100,-100,-100,0,0,100,30.08,30.01,20,8,24,0.00
2012-8-17,87,86,83,-100,-100,-100,0,0,100,30.04,29.98,16,7,18,0.00
2012-8-18,88,86,85,-100,-100,-100,0,0,100,30.02,29.94,13,8,15,0.00
2012-8-19,87,86,85,-100,-100,-100,0,0,100,30.03,29.96,11,7,14,0.00
2012-8-20,87,86,85,-100,-100,-100,0,0,100,30.03,29.96,14,7,16,0.00
2012-8-21,88,86,82,-100,-100,-100,0,0,100,30.09,30.00,24,9,28,0.00
2012-8-22,88,85,80,-100,-100,-100,0,0,100,30.09,30.02,21,10,24,0.00
2012-8-23,88,85,80,-100,-100,-100,0,0,100,30.09,29.99,16,13,20,0.00
2012-8-24,87,84,78,-100,-100,-100,0,0,100,30.01,29.89,24,16,28,0.00
2012-8-25,82,78,74,-100,-100,-100,0,0,100,29.99,29.85,30,16,34,0.00
2012-8-26,83,81,76,-100,-100,-100,0,0,100,29.84,29.58,37,27,46,0.00
2012-8-27,83,83,82,-100,-100,-100,0,0,100,29.93,29.65,33,26,40,0.00
2012-8-28,84,83,81,-100,-100,-100,0,0,100,30.00,29.92,18,14,22,0.00
2012-8-29,85,84,83,-100,-100,-100,0,0,100,30.01,29.93,17,12,20,0.00
2012-8-30,86,84,83,-100,-100,-100,0,0,100,30.10,29.96,15,11,17,0.00
2012-8-31,85,84,83,-100,-100,-100,0,0,100,30.14,30.06,11,10,14,0.00
2012-9-7,87,86,85,-100,-100,-100,0,0,100,30.00,29.93,7,6,9,0.00
2012-9-8,86,85,85,-100,-100,-100,0,0,100,30.01,29.91,13,7,15,0.00
2012-9-9,86,85,84,-100,-100,-100,0,0,100,30.02,29.95,14,10,16,0.00
2012-9-10,86,85,85,-100,-100,-100,0,0,100,30.04,29.97,13,10,16,0.00
2012-9-11,87,84,80,-100,-100,-100,0,0,100,30.06,29.98,20,8,22,0.00
2012-9-12,88,85,82,-100,-100,-100,0,0,100,30.05,29.95,20,16,23,0.00
2012-9-13,84,82,80,-100,-100,-100,0,0,100,30.05,29.95,21,15,23,0.00
2012-9-14,85,83,80,-100,-100,-100,0,0,100,30.02,29.95,16,13,18,0.00
2012-9-15,85,83,80,-100,-100,-100,0,0,100,30.03,29.96,17,12,21,0.00
2012-9-16,83,82,80,-100,-100,-100,0,0,100,30.03,29.96,20,12,22,0.00
2012-9-17,84,83,80,-100,-100,-100,0,0,100,30.02,29.93,16,11,21,0.00
2012-9-18,86,84,82,-100,-100,-100,0,0,100,30.03,29.93,21,13,23,0.00
2012-9-19,84,83,81,-100,-100,-100,0,0,100,30.05,29.93,18,9,22,0.00
2012-9-20,87,82,78,-100,-100,-100,0,0,100,30.02,29.91,21,10,25,0.00
2012-9-21,83,82,78,-100,-100,-100,0,0,100,30.00,29.89,20,12,23,0.00
2012-9-22,83,81,78,-100,-100,-100,0,0,100,30.03,29.92,21,9,28,0.00
2012-9-23,84,81,80,-100,-100,-100,0,0,100,30.07,29.99,13,7,15,0.00
2012-9-24,84,81,79,-100,-100,-100,0,0,100,30.07,29.97,15,9,17,0.00
2012-9-25,85,82,78,-100,-100,-100,0,0,100,30.07,29.99,14,10,16,0.00
2012-9-26,84,82,79,-100,-100,-100,0,0,100,30.08,30.01,15,9,17,0.00
2012-9-27,85,82,79,-100,-100,-100,0,0,100,30.09,29.99,13,8,14,0.00
2012-9-28,86,81,77,-100,-100,-100,0,0,100,30.03,29.94,11,8,13,0.00
2012-9-29,87,83,80,-100,-100,-100,0,0,100,29.98,29.85,13,8,15,0.00
2012-9-30,84,83,81,-100,-100,-100,0,0,100,29.90,29.79,18,12,22,0.00
2012-10-1,84,82,78,-100,-100,-100,0,0,100,29.88,29.77,23,16,26,0.00
2012-10-2,84,82,76,-100,-100,-100,0,0,100,30.06,29.87,24,16,30,0.00
2012-10-3,85,83,80,-100,-100,-100,0,0,100,30.14,30.05,14,9,16,0.00
2012-10-4,87,84,82,-100,-100,-100,0,0,100,30.15,30.04,16,12,20,0.00
2012-10-5,86,84,82,-100,-100,-100,0,0,100,30.08,29.93,14,12,17,0.00
2012-10-6,85,82,77,-100,-100,-100,0,0,100,29.97,29.87,14,8,18,0.00
2012-10-7,86,82,79,-100,-100,-100,0,0,100,29.97,29.88,15,10,18,0.00
2012-10-8,86,83,80,-100,-100,-100,0,0,100,30.01,29.91,14,10,20,0.00
2012-10-9,87,82,80,-100,-100,-100,0,0,100,30.03,29.95,13,7,21,0.00
2012-10-10,86,83,81,-100,-100,-100,0,0,100,30.06,29.98,14,10,18,0.00
2012-10-11,86,82,79,-100,-100,-100,0,0,100,30.11,30.02,17,14,22,0.00
2012-10-12,84,80,75,-100,-100,-100,0,0,100,30.11,30.03,18,14,22,0.00
2012-10-13,84,79,75,-100,-100,-100,0,0,100,30.11,29.98,23,17,28,0.00
2012-10-14,84,80,76,-100,-100,-100,0,0,100,30.03,29.91,21,15,28,0.00
2012-10-15,83,80,78,-100,-100,-100,0,0,100,29.93,29.80,13,7,14,0.00
2012-10-16,85,81,78,-100,-100,-100,0,0,100,29.87,29.78,10,7,13,0.00
2012-10-17,83,81,78,-100,-100,-100,0,0,100,29.89,29.82,13,7,16,0.00
2012-10-18,83,80,78,-100,-100,-100,0,0,100,29.90,29.82,20,12,23,0.00
2012-10-22,84,82,80,-100,-100,-100,0,0,100,29.99,29.92,25,19,29,0.00
2012-10-26,80,78,76,-100,-100,-100,0,0,100,29.65,29.57,29,21,39,0.00
2012-10-27,79,78,77,-100,-100,-100,0,0,100,29.75,29.62,29,26,36,0.00
2012-10-28,78,77,75,-100,-100,-100,0,0,100,29.82,29.74,26,21,32,0.00
2012-10-29,75,71,68,-100,-100,-100,0,0,100,29.91,29.80,25,21,31,0.00
2012-10-30,72,70,66,-100,-100,-100,0,0,100,30.03,29.86,23,17,26,0.00
2012-10-31,74,71,68,-100,-100,-100,0,0,100,30.09,30.01,15,7,17,0.00
2012-11-1,73,71,69,-100,-100,-100,0,0,100,30.10,30.02,8,5,10,0.00
2012-11-2,74,73,72,-100,-100,-100,0,0,100,30.10,30.03,11,7,14,0.00
2012-11-3,77,72,68,-100,-100,-100,0,0,100,30.14,30.05,14,7,15,0.00
2012-11-4,77,74,70,-100,-100,-100,0,0,100,30.12,30.01,10,8,11,0.00
2012-11-5,76,74,72,-100,-100,-100,0,0,100,30.03,29.95,10,7,13,0.00
2012-11-6,78,74,72,-100,-100,-100,0,0,100,29.97,29.87,7,4,8,0.00
2012-11-7,75,70,65,-100,-100,-100,0,0,100,30.01,29.86,22,14,28,0.00
2012-11-8,69,66,63,-100,-100,-100,0,0,100,30.13,29.99,16,12,21,0.00
2012-11-9,74,68,61,-100,-100,-100,0,0,100,30.19,30.11,21,16,23,0.00
2012-11-10,74,70,67,-100,-100,-100,0,0,100,30.24,30.15,18,13,22,0.00
2012-11-11,75,72,68,-100,-100,-100,0,0,100,30.22,30.15,20,12,23,0.00
2012-11-12,76,73,71,-100,-100,-100,0,0,100,30.19,30.10,16,10,18,0.00
2012-11-13,77,74,71,-100,-100,-100,0,0,100,30.13,30.03,14,9,15,0.00
2012-11-14,78,72,69,-100,-100,-100,0,0,100,30.11,30.05,13,8,15,0.00
2012-11-15,76,73,70,-100,-100,-100,0,0,100,30.11,30.03,10,6,13,0.00
2012-11-16,76,72,68,-100,-100,-100,0,0,100,30.11,30.02,16,11,18,0.00
2012-11-17,77,73,67,-100,-100,-100,0,0,100,30.08,30.01,18,12,22,0.00
2012-11-18,78,74,70,-100,-100,-100,0,0,100,30.11,30.02,15,13,18,0.00
2012-11-19,75,70,63,-100,-100,-100,0,0,100,30.13,30.03,18,14,23,0.00
2012-11-20,70,64,60,-100,-100,-100,0,0,100,30.08,29.97,15,10,21,0.00
2012-11-21,72,67,62,-100,-100,-100,0,0,100,30.06,29.94,20,15,22,0.00
2012-11-22,70,66,60,-100,-100,-100,0,0,100,30.13,30.02,17,14,22,0.00
2012-11-23,69,65,58,-100,-100,-100,0,0,100,30.16,30.07,20,15,22,0.00
2012-11-24,69,66,61,-100,-100,-100,0,0,100,30.14,30.03,17,9,20,0.00
2012-11-25,67,64,58,-100,-100,-100,0,0,100,30.15,30.08,14,7,15,0.00
2012-11-26,73,69,65,-100,-100,-100,0,0,100,30.19,30.11,10,7,11,0.00
2012-11-27,72,71,69,-100,-100,-100,0,0,100,30.19,30.10,8,6,9,0.00
2012-11-28,74,71,70,-100,-100,-100,0,0,100,30.20,30.11,15,5,17,0.00
2012-11-29,75,70,65,-100,-100,-100,0,0,100,30.19,30.12,18,14,22,0.00
2012-11-30,74,72,69,-100,-100,-100,0,0,100,30.19,30.11,20,15,22,0.00
2012-12-1,75,72,70,-100,-100,-100,0,0,100,30.17,30.10,17,13,21,0.00
2012-12-2,76,72,68,-100,-100,-100,0,0,100,30.21,30.12,17,11,20,0.00
2012-12-3,75,72,69,-100,-100,-100,0,0,100,30.22,30.14,20,13,23,0.00
2012-12-4,75,72,68,-100,-100,-100,0,0,100,30.22,30.13,18,12,23,0.00
2012-12-5,75,72,68,-100,-100,-100,0,0,100,30.14,30.01,18,9,22,0.00
2012-12-6,75,65,70,-100,-100,-100,0,0,100,30.01,29.92,10,7,13,0.00
2012-12-7,79,74,70,-100,-100,-100,0,0,100,29.98,29.91,11,6,14,0.00
2012-12-8,76,74,72,-100,-100,-100,0,0,100,30.04,29.95,11,7,15,0.00
2012-12-9,79,75,72,-100,-100,-100,0,0,100,30.09,30.00,7,4,8,0.00
2012-12-10,78,78,76,-100,-100,-100,0,0,100,30.04,29.93,11,7,13,0.00
2012-12-11,80,78,77,-100,-100,-100,0,0,100,30.06,29.95,10,5,13,0.00
2012-12-12,79,78,78,-100,-100,-100,0,0,100,30.10,30.03,16,9,20,0.00
2012-12-13,78,75,70,-100,-100,-100,0,0,100,30.11,30.05,20,9,22,0.00
2012-12-14,77,71,67,-100,-100,-100,0,0,100,30.13,30.04,20,14,23,0.00
2012-12-15,76,73,68,-100,-100,-100,0,0,100,30.10,30.02,15,12,18,0.00
2012-12-16,78,75,72,-100,-100,-100,0,0,100,30.05,29.95,10,7,13,0.00
2012-12-17,78,76,74,-100,-100,-100,0,0,100,29.99,29.92,9,3,11,0.00
2012-12-18,77,76,75,-100,-100,-100,0,0,100,30.03,29.94,9,4,10,0.00
2012-12-19,79,76,72,-100,-100,-100,0,0,100,30.10,30.02,13,9,14,0.00
2012-12-20,78,77,75,-100,-100,-100,0,0,100,30.09,29.98,14,10,16,0.00
2012-12-21,77,69,58,-100,-100,-100,0,0,100,30.19,30.00,28,18,32,0.00
2012-12-22,64,58,52,-100,-100,-100,0,0,100,30.28,30.19,22,14,26,0.00
2012-12-23,69,63,55,-100,-100,-100,0,0,100,30.23,30.14,15,11,17,0.00
2012-12-24,71,67,63,-100,-100,-100,0,0,100,30.14,30.02,13,8,15,0.00
2012-12-25,72,69,65,-100,-100,-100,0,0,100,30.04,29.94,10,7,13,0.00
2012-12-26,73,72,70,-100,-100,-100,0,0,100,30.01,29.89,14,6,15,0.00
2012-12-27,70,65,60,-100,-100,-100,0,0,100,30.09,29.99,15,8,17,0.00
2012-12-28,73,70,64,-100,-100,-100,0,0,100,30.07,29.97,14,9,15,0.00
2012-12-29,73,72,69,-100,-100,-100,0,0,100,30.13,29.94,22,8,25,0.00
2012-12-30,68,62,55,-100,-100,-100,0,0,100,30.27,30.13,22,16,25,0.00
2012-12-31,71,67,61,-100,-100,-100,0,0,100,30.28,30.17,16,12,21,0.00
2013-1-1,73,71,69,-100,-100,-100,0,0,100,30.18,30.05,11,7,14,0.00